createdAt,value
2024-04-24T00:01:39.120Z,4.40
2024-04-24T00:04:24.615Z,4.60
2024-04-24T00:07:10.075Z,4.43
2024-04-24T00:09:55.503Z,4.51
2024-04-24T00:12:41.511Z,4.51
2024-04-24T00:15:27.066Z,4.54
2024-04-24T00:18:12.551Z,4.61
2024-04-24T00:20:57.988Z,4.67
2024-04-24T00:23:43.375Z,4.59
2024-04-24T00:26:29.161Z,4.81
2024-04-24T00:29:14.598Z,4.81
2024-04-24T00:32:00.020Z,4.65
2024-04-24T00:34:45.216Z,4.67
2024-04-24T00:37:30.573Z,4.75
2024-04-24T00:40:15.837Z,4.74
2024-04-24T00:43:01.163Z,4.70
2024-04-24T00:45:48.076Z,4.83
2024-04-24T00:48:33.764Z,4.86
2024-04-24T00:51:20.643Z,4.92
2024-04-24T00:54:07.020Z,4.94
2024-04-24T00:56:52.541Z,4.98
2024-04-24T00:59:38.191Z,4.95
2024-04-24T01:02:23.339Z,4.77
2024-04-24T01:05:08.991Z,4.75
2024-04-24T01:07:54.570Z,4.68
2024-04-24T01:10:40.050Z,4.73
2024-04-24T01:13:26.147Z,4.51
2024-04-24T01:16:18.492Z,4.65
2024-04-24T01:19:09.189Z,4.64
2024-04-24T01:22:26.443Z,4.70
2024-04-24T01:25:36.333Z,4.64
2024-04-24T01:28:22.685Z,4.59
2024-04-24T01:31:08.194Z,4.55
2024-04-24T01:33:53.618Z,4.59
2024-04-24T01:36:38.968Z,4.57
2024-04-24T01:39:24.150Z,4.41
2024-04-24T01:42:09.621Z,4.46
2024-04-24T01:44:54.544Z,4.32
2024-04-24T01:47:40.119Z,4.27
2024-04-24T01:50:25.476Z,4.41
2024-04-24T01:53:10.947Z,4.31
2024-04-24T01:55:56.322Z,4.47
2024-04-24T01:58:41.646Z,4.38
2024-04-24T02:01:26.941Z,4.55
2024-04-24T02:04:12.376Z,4.56
2024-04-24T02:06:57.710Z,4.34
2024-04-24T02:09:42.629Z,4.15
2024-04-24T02:12:28.342Z,4.30
2024-04-24T02:15:13.815Z,4.18
2024-04-24T02:18:06.431Z,3.95
2024-04-24T02:20:51.819Z,3.98
2024-04-24T02:23:37.103Z,3.88
2024-04-24T02:26:22.443Z,4.08
2024-04-24T02:29:07.664Z,4.26
2024-04-24T02:31:53.019Z,4.14
2024-04-24T02:34:38.395Z,4.31
2024-04-24T02:37:23.868Z,4.18
2024-04-24T02:40:09.390Z,4.14
2024-04-24T02:42:54.844Z,3.98
2024-04-24T02:45:40.151Z,3.87
2024-04-24T02:48:25.511Z,3.92
2024-04-24T02:51:11.307Z,3.96
2024-04-24T02:53:56.367Z,3.98
2024-04-24T02:56:41.726Z,4.15
2024-04-24T02:59:27.158Z,4.32
2024-04-24T03:02:12.463Z,4.27
2024-04-24T03:04:57.905Z,4.07
2024-04-24T03:07:43.319Z,3.86
2024-04-24T03:10:28.832Z,3.94
2024-04-24T03:13:14.191Z,4.09
2024-04-24T03:15:59.751Z,4.18
2024-04-24T03:18:45.044Z,4.24
2024-04-24T03:21:30.480Z,4.35
2024-04-24T03:24:16.127Z,4.41
2024-04-24T03:27:01.457Z,4.31
2024-04-24T03:29:47.049Z,4.12
2024-04-24T03:32:32.570Z,4.08
2024-04-24T03:35:17.738Z,4.02
2024-04-24T03:38:03.273Z,4.15
2024-04-24T03:40:48.641Z,3.89
2024-04-24T03:43:34.190Z,3.92
2024-04-24T03:46:19.595Z,3.86
2024-04-24T03:49:05.062Z,3.78
2024-04-24T03:51:50.399Z,3.73
2024-04-24T03:54:35.867Z,3.76
2024-04-24T03:57:21.445Z,3.83
2024-04-24T04:00:07.608Z,3.68
2024-04-24T04:02:52.812Z,3.61
2024-04-24T04:05:38.532Z,3.71
2024-04-24T04:08:23.924Z,3.72
2024-04-24T04:11:09.460Z,3.66
2024-04-24T04:13:54.806Z,3.66
2024-04-24T04:16:39.996Z,3.67
2024-04-24T04:19:25.406Z,3.57
2024-04-24T04:22:10.760Z,3.59
2024-04-24T04:24:56.300Z,3.63
2024-04-24T04:27:41.543Z,3.57
2024-04-24T04:30:27.208Z,3.59
2024-04-24T04:33:12.667Z,3.53
2024-04-24T04:35:58.143Z,3.52
2024-04-24T04:38:43.585Z,3.49
2024-04-24T04:41:28.917Z,3.53
2024-04-24T04:44:14.441Z,3.48
2024-04-24T04:46:59.855Z,3.58
2024-04-24T04:49:45.177Z,3.52
2024-04-24T04:52:31.187Z,3.46
2024-04-24T04:55:16.580Z,3.48
2024-04-24T04:58:02.044Z,3.48
2024-04-24T05:00:47.398Z,3.55
2024-04-24T05:03:32.772Z,3.54
2024-04-24T05:06:18.176Z,3.56
2024-04-24T05:09:03.645Z,3.57
2024-04-24T05:11:49.237Z,3.51
2024-04-24T05:14:34.450Z,3.63
2024-04-24T05:17:19.897Z,3.65
2024-04-24T05:20:06.384Z,3.72
2024-04-24T05:22:51.530Z,3.59
2024-04-24T05:25:36.931Z,3.74
2024-04-24T05:28:22.423Z,3.63
2024-04-24T05:31:07.948Z,3.74
2024-04-24T05:33:53.431Z,3.66
2024-04-24T05:36:38.726Z,3.64
2024-04-24T05:39:24.176Z,3.77
2024-04-24T05:42:09.432Z,3.70
2024-04-24T05:44:54.628Z,3.71
2024-04-24T05:47:40.160Z,3.79
2024-04-24T05:50:25.511Z,3.85
2024-04-24T05:53:11.095Z,3.95
2024-04-24T05:55:56.508Z,3.98
2024-04-24T05:58:41.884Z,4.09
2024-04-24T06:01:27.228Z,4.22
2024-04-24T06:04:12.821Z,4.16
2024-04-24T06:06:58.234Z,4.07
2024-04-24T06:09:43.501Z,4.08
2024-04-24T06:12:28.945Z,4.08
2024-04-24T06:15:14.326Z,4.22
2024-04-24T06:17:59.858Z,3.99
2024-04-24T06:20:45.170Z,4.16
2024-04-24T06:23:30.810Z,4.13
2024-04-24T06:26:16.170Z,4.14
2024-04-24T06:29:01.473Z,3.97
2024-04-24T06:31:46.624Z,3.91
2024-04-24T06:34:31.865Z,3.95
2024-04-24T06:37:17.353Z,3.89
2024-04-24T06:40:02.738Z,4.16
2024-04-24T06:42:50.003Z,4.20
2024-04-24T06:45:35.284Z,4.03
2024-04-24T06:48:20.344Z,4.04
2024-04-24T06:51:05.724Z,4.11
2024-04-24T06:53:51.012Z,4.10
2024-04-24T06:56:37.896Z,4.06
2024-04-24T06:59:24.473Z,3.88
2024-04-24T07:02:09.589Z,3.95
2024-04-24T07:04:54.892Z,3.93
2024-04-24T07:07:40.311Z,3.96
2024-04-24T07:10:25.679Z,3.95
2024-04-24T07:13:11.037Z,3.88
2024-04-24T07:15:56.400Z,3.99
2024-04-24T07:18:41.690Z,4.21
2024-04-24T07:21:26.981Z,4.11
2024-04-24T07:24:12.547Z,4.07
2024-04-24T07:26:57.865Z,4.03
2024-04-24T07:29:43.152Z,4.19
2024-04-24T07:32:28.545Z,4.26
2024-04-24T07:35:14.954Z,4.30
2024-04-24T07:38:01.188Z,4.37
2024-04-24T07:40:46.636Z,4.42
2024-04-24T07:43:33.457Z,4.38
2024-04-24T07:46:18.627Z,4.20
2024-04-24T07:49:04.329Z,4.25
2024-04-24T07:51:49.751Z,4.25
2024-04-24T07:54:35.112Z,4.26
2024-04-24T07:57:20.583Z,4.41
2024-04-24T08:00:06.705Z,4.32
2024-04-24T08:02:52.175Z,4.39
2024-04-24T08:05:37.510Z,4.46
2024-04-24T08:08:23.075Z,4.59
2024-04-24T08:11:08.538Z,4.71
2024-04-24T08:13:53.881Z,4.52
2024-04-24T08:16:39.435Z,4.46
2024-04-24T08:19:24.954Z,4.57
2024-04-24T08:22:10.598Z,4.62
2024-04-24T08:24:56.114Z,4.47
2024-04-24T08:27:41.751Z,4.61
2024-04-24T08:30:27.178Z,4.55
2024-04-24T08:33:12.467Z,4.32
2024-04-24T08:36:05.116Z,4.41
2024-04-24T08:38:50.247Z,4.26
2024-04-24T08:41:35.641Z,4.49
2024-04-24T08:44:21.403Z,4.57
2024-04-24T08:47:06.753Z,4.54
2024-04-24T08:49:52.273Z,4.70
2024-04-24T08:52:43.554Z,4.88
2024-04-24T08:55:30.068Z,4.84
2024-04-24T08:58:21.517Z,5.12
2024-04-24T09:01:14.080Z,5.06
2024-04-24T09:04:06.046Z,5.08
2024-04-24T09:06:52.409Z,5.17
2024-04-24T09:09:37.955Z,5.16
2024-04-24T09:12:25.244Z,5.09
2024-04-24T09:15:10.320Z,5.05
2024-04-24T09:17:56.134Z,5.24
2024-04-24T09:20:41.564Z,5.32
2024-04-24T09:23:26.853Z,5.40
2024-04-24T09:26:13.272Z,5.32
2024-04-24T09:28:58.773Z,5.42
2024-04-24T09:31:44.418Z,5.52
2024-04-24T09:34:29.777Z,5.38
2024-04-24T09:37:15.520Z,5.61
2024-04-24T09:40:03.872Z,5.68
2024-04-24T09:42:49.610Z,5.71
2024-04-24T09:45:35.021Z,5.62
2024-04-24T09:48:24.550Z,5.56
2024-04-24T09:51:12.347Z,5.51
2024-04-24T09:53:57.781Z,5.65
2024-04-24T09:56:44.724Z,5.74
2024-04-24T09:59:32.352Z,5.51
2024-04-24T10:02:21.046Z,5.50
2024-04-24T10:05:17.053Z,5.67
2024-04-24T10:08:05.384Z,5.81
2024-04-24T10:10:54.224Z,5.21
2024-04-24T10:13:42.683Z,5.27
2024-04-24T10:16:29.294Z,5.58
2024-04-24T10:19:16.168Z,5.98
2024-04-24T10:22:02.248Z,6.10
2024-04-24T10:24:49.044Z,5.58
2024-04-24T10:27:36.583Z,5.34
2024-04-24T10:30:23.820Z,5.26
2024-04-24T10:33:09.778Z,5.68
2024-04-24T10:35:55.040Z,6.03
2024-04-24T10:38:44.290Z,6.31
2024-04-24T10:41:30.234Z,6.42
2024-04-24T10:44:16.960Z,6.57
2024-04-24T10:47:02.507Z,6.81
2024-04-24T10:49:54.933Z,7.19
2024-04-24T10:52:47.432Z,6.87
2024-04-24T10:55:33.103Z,6.45
2024-04-24T10:58:21.953Z,6.27
2024-04-24T11:01:07.301Z,6.07
2024-04-24T11:03:53.157Z,6.12
2024-04-24T11:06:38.800Z,6.42
2024-04-24T11:09:25.141Z,6.46
2024-04-24T11:12:10.927Z,7.10
2024-04-24T11:14:56.972Z,7.34
2024-04-24T11:17:44.204Z,7.73
2024-04-24T11:20:29.668Z,7.39
2024-04-24T11:23:15.029Z,7.64
2024-04-24T11:26:00.650Z,7.39
2024-04-24T11:28:45.854Z,6.93
2024-04-24T11:31:44.012Z,7.06
2024-04-24T11:34:29.505Z,6.98
2024-04-24T11:37:15.540Z,7.28
2024-04-24T11:40:01.026Z,7.62
2024-04-24T11:42:47.528Z,7.08
2024-04-24T11:45:32.991Z,7.40
2024-04-24T11:48:25.261Z,7.45
2024-04-24T11:51:14.752Z,7.55
2024-04-24T11:54:01.156Z,7.68
2024-04-24T11:56:46.761Z,7.71
2024-04-24T11:59:32.054Z,7.83
2024-04-24T12:02:18.283Z,7.84
2024-04-24T12:05:05.018Z,7.96
2024-04-24T12:07:50.686Z,8.20
2024-04-24T12:10:36.177Z,8.48
2024-04-24T12:13:21.738Z,7.89
2024-04-24T12:16:07.269Z,7.90
2024-04-24T12:18:52.658Z,7.89
2024-04-24T12:21:38.080Z,7.88
2024-04-24T12:24:23.773Z,8.07
2024-04-24T12:27:09.412Z,7.73
2024-04-24T12:29:54.728Z,7.77
2024-04-24T12:32:40.851Z,6.99
2024-04-24T12:35:25.961Z,6.81
2024-04-24T12:38:11.339Z,6.34
2024-04-24T12:40:56.778Z,5.95
2024-04-24T12:43:41.982Z,5.39
2024-04-24T12:46:27.428Z,5.29
2024-04-24T12:49:12.905Z,5.14
2024-04-24T12:51:58.347Z,4.87
2024-04-24T12:54:43.629Z,4.28
2024-04-24T12:57:29.019Z,4.32
2024-04-24T13:00:17.608Z,4.41
2024-04-24T13:03:04.986Z,4.62
2024-04-24T13:05:50.583Z,4.81
2024-04-24T13:08:35.993Z,5.00
2024-04-24T13:11:21.494Z,5.47
2024-04-24T13:14:06.934Z,5.43
2024-04-24T13:16:52.249Z,5.43
2024-04-24T13:19:37.888Z,5.56
2024-04-24T13:22:23.285Z,5.90
2024-04-24T13:25:08.540Z,6.59
2024-04-24T13:27:53.929Z,6.03
2024-04-24T13:30:38.963Z,6.35
2024-04-24T13:33:24.511Z,6.41
2024-04-24T13:36:09.886Z,6.27
2024-04-24T13:38:55.365Z,6.06
2024-04-24T13:41:41.365Z,6.14
2024-04-24T13:44:26.709Z,6.11
2024-04-24T13:47:12.001Z,6.00
2024-04-24T13:49:57.544Z,6.03
2024-04-24T13:52:42.829Z,6.11
2024-04-24T13:55:28.039Z,6.00
2024-04-24T13:58:13.304Z,5.83
2024-04-24T14:00:58.699Z,5.96
2024-04-24T14:03:44.184Z,6.00
2024-04-24T14:06:30.587Z,6.11
2024-04-24T14:09:16.183Z,5.95
2024-04-24T14:12:01.498Z,6.08
2024-04-24T14:14:46.909Z,5.34
2024-04-24T14:17:32.398Z,5.32
2024-04-24T14:20:17.895Z,5.05
2024-04-24T14:23:03.767Z,5.20
2024-04-24T14:25:49.071Z,5.56
2024-04-24T14:28:34.674Z,5.63
2024-04-24T14:31:20.027Z,5.74
2024-04-24T14:34:05.375Z,5.89
2024-04-24T14:36:51.104Z,6.32
2024-04-24T14:39:36.407Z,6.56
2024-04-24T14:42:21.823Z,6.36
2024-04-24T14:45:07.000Z,6.68
2024-04-24T14:47:52.601Z,6.51
2024-04-24T14:50:38.034Z,6.76
2024-04-24T14:53:23.315Z,6.97
2024-04-24T14:56:09.013Z,6.85
2024-04-24T14:58:55.005Z,6.76
2024-04-24T15:01:40.321Z,6.07
2024-04-24T15:04:25.816Z,5.55
2024-04-24T15:07:11.228Z,5.19
2024-04-24T15:09:57.672Z,5.21
2024-04-24T15:12:42.805Z,5.25
2024-04-24T15:15:28.286Z,5.36
2024-04-24T15:18:13.987Z,5.47
2024-04-24T15:20:59.391Z,5.71
2024-04-24T15:23:45.499Z,5.97
2024-04-24T15:26:30.870Z,6.11
2024-04-24T15:29:16.536Z,6.32
2024-04-24T15:32:02.024Z,6.17
2024-04-24T15:34:47.538Z,6.38
2024-04-24T15:37:32.941Z,6.45
2024-04-24T15:40:18.062Z,6.44
2024-04-24T15:43:03.650Z,6.26
2024-04-24T15:45:48.996Z,6.38
2024-04-24T15:48:38.082Z,6.50
2024-04-24T15:51:23.137Z,6.27
2024-04-24T15:54:08.591Z,6.43
2024-04-24T15:56:53.923Z,6.30
2024-04-24T15:59:39.402Z,5.93
2024-04-24T16:02:24.785Z,5.73
2024-04-24T16:05:09.910Z,5.62
2024-04-24T16:07:55.538Z,4.92
2024-04-24T16:10:40.781Z,4.93
2024-04-24T16:13:26.331Z,4.79
2024-04-24T16:16:14.422Z,5.22
2024-04-24T16:19:00.064Z,4.99
2024-04-24T16:21:45.506Z,4.92
2024-04-24T16:24:30.425Z,5.11
2024-04-24T16:27:16.112Z,5.37
2024-04-24T16:30:01.482Z,5.37
2024-04-24T16:32:46.997Z,5.55
2024-04-24T16:35:32.297Z,5.38
2024-04-24T16:38:20.544Z,5.30
2024-04-24T16:41:06.298Z,5.31
2024-04-24T16:43:53.150Z,5.51
2024-04-24T16:46:38.426Z,5.57
2024-04-24T16:49:23.961Z,5.47
2024-04-24T16:52:10.865Z,5.59
2024-04-24T16:54:56.148Z,5.72
2024-04-24T16:57:41.422Z,5.86
2024-04-24T17:00:26.995Z,5.78
2024-04-24T17:03:12.549Z,5.95
2024-04-24T17:05:57.705Z,5.84
2024-04-24T17:08:43.241Z,6.03
2024-04-24T17:11:28.518Z,5.97
2024-04-24T17:14:14.068Z,5.88
2024-04-24T17:16:59.670Z,5.93
2024-04-24T17:19:44.932Z,5.97
2024-04-24T17:22:30.417Z,6.10
2024-04-24T17:25:15.803Z,6.20
2024-04-24T17:28:01.214Z,6.37
2024-04-24T17:30:46.548Z,6.53
2024-04-24T17:33:31.924Z,6.15
2024-04-24T17:36:17.280Z,6.00
2024-04-24T17:39:02.648Z,6.14
2024-04-24T17:41:48.096Z,6.24
2024-04-24T17:44:33.654Z,6.15
2024-04-24T17:47:18.992Z,6.08
2024-04-24T17:50:04.670Z,6.07
2024-04-24T17:52:50.546Z,5.83
2024-04-24T17:55:35.866Z,5.94
2024-04-24T17:58:21.367Z,6.16
2024-04-24T18:01:06.941Z,6.18
2024-04-24T18:03:52.267Z,6.07
2024-04-24T18:06:37.761Z,5.83
2024-04-24T18:09:23.332Z,5.74
2024-04-24T18:12:08.802Z,5.57
2024-04-24T18:14:54.719Z,5.51
2024-04-24T18:17:40.497Z,5.49
2024-04-24T18:20:25.868Z,5.58
2024-04-24T18:23:10.984Z,5.78
2024-04-24T18:25:56.419Z,5.93
2024-04-24T18:28:41.875Z,6.14
2024-04-24T18:31:27.325Z,6.18
2024-04-24T18:34:15.595Z,6.25
2024-04-24T18:37:01.548Z,6.35
2024-04-24T18:39:47.046Z,6.39
2024-04-24T18:42:32.384Z,6.40
2024-04-24T18:45:17.782Z,6.44
2024-04-24T18:48:05.450Z,6.47
2024-04-24T18:50:52.526Z,6.55
2024-04-24T18:53:38.364Z,6.36
2024-04-24T18:56:23.520Z,6.49
2024-04-24T18:59:08.908Z,6.53
2024-04-24T19:01:54.013Z,6.44
2024-04-24T19:04:39.375Z,6.37
2024-04-24T19:07:24.817Z,6.42
2024-04-24T19:10:10.239Z,6.40
2024-04-24T19:12:55.728Z,6.35
2024-04-24T19:15:41.320Z,6.22
2024-04-24T19:18:26.782Z,6.40
2024-04-24T19:21:12.204Z,6.33
2024-04-24T19:23:59.050Z,6.33
2024-04-24T19:26:44.527Z,6.33
2024-04-24T19:29:30.083Z,6.34
2024-04-24T19:32:15.486Z,6.28
2024-04-24T19:35:00.945Z,6.23
2024-04-24T19:37:49.884Z,6.24
2024-04-24T19:40:35.276Z,6.27
2024-04-24T19:43:20.722Z,6.32
2024-04-24T19:46:09.944Z,6.26
2024-04-24T19:48:55.268Z,6.27
2024-04-24T19:51:40.770Z,6.24
2024-04-24T19:54:26.260Z,6.33
2024-04-24T19:57:11.750Z,6.35
2024-04-24T19:59:57.066Z,6.38
2024-04-24T20:02:42.612Z,6.37
2024-04-24T20:05:28.192Z,6.27
2024-04-24T20:08:13.757Z,6.13
2024-04-24T20:11:06.914Z,6.08
2024-04-24T20:13:52.603Z,6.10
2024-04-24T20:16:37.998Z,6.23
2024-04-24T20:19:23.622Z,6.32
2024-04-24T20:22:09.101Z,6.26
2024-04-24T20:24:54.745Z,6.25
2024-04-24T20:27:40.151Z,6.28
2024-04-24T20:30:25.433Z,6.10
2024-04-24T20:33:11.050Z,5.76
2024-04-24T20:35:56.487Z,5.95
2024-04-24T20:38:41.905Z,6.06
2024-04-24T20:41:27.146Z,5.96
2024-04-24T20:44:12.850Z,5.98
2024-04-24T20:46:58.063Z,5.91
2024-04-24T20:49:43.458Z,5.97
2024-04-24T20:52:28.896Z,5.92
2024-04-24T20:55:14.490Z,5.79
2024-04-24T20:57:59.946Z,5.85
2024-04-24T21:00:45.420Z,5.88
2024-04-24T21:03:30.965Z,5.96
2024-04-24T21:06:16.407Z,5.70
2024-04-24T21:09:02.275Z,5.84
2024-04-24T21:11:47.614Z,5.81
2024-04-24T21:14:33.199Z,5.84
2024-04-24T21:17:18.562Z,5.79
2024-04-24T21:20:04.036Z,5.84
2024-04-24T21:22:49.388Z,5.89
2024-04-24T21:25:37.993Z,5.62
2024-04-24T21:28:23.695Z,5.73
2024-04-24T21:31:08.914Z,5.75
2024-04-24T21:33:54.355Z,5.84
2024-04-24T21:36:39.848Z,5.73
2024-04-24T21:39:25.228Z,5.53
2024-04-24T21:42:11.007Z,5.40
2024-04-24T21:44:56.346Z,5.45
2024-04-24T21:47:41.775Z,5.60
2024-04-24T21:50:27.304Z,5.69
2024-04-24T21:53:12.339Z,5.55
2024-04-24T21:55:57.865Z,5.47
2024-04-24T21:58:43.189Z,5.43
2024-04-24T22:01:28.576Z,5.38
2024-04-24T22:04:14.079Z,5.37
2024-04-24T22:06:59.371Z,5.47
2024-04-24T22:09:44.855Z,5.58
2024-04-24T22:12:30.270Z,5.51
2024-04-24T22:15:15.672Z,5.55
2024-04-24T22:18:01.146Z,5.51
2024-04-24T22:20:46.450Z,5.29
2024-04-24T22:23:32.042Z,5.40
2024-04-24T22:26:17.481Z,5.45
2024-04-24T22:29:02.991Z,5.48
2024-04-24T22:31:49.171Z,5.54
2024-04-24T22:34:34.244Z,5.24
2024-04-24T22:37:19.413Z,5.24
2024-04-24T22:40:04.794Z,5.16
2024-04-24T22:42:49.869Z,5.20
2024-04-24T22:45:35.372Z,5.28
2024-04-24T22:48:20.847Z,5.32
2024-04-24T22:51:06.154Z,5.32
2024-04-24T22:53:51.684Z,5.29
2024-04-24T22:56:36.946Z,5.21
2024-04-24T22:59:22.428Z,5.04
2024-04-24T23:02:08.076Z,5.19
2024-04-24T23:04:53.600Z,5.04
2024-04-24T23:07:39.179Z,4.93
2024-04-24T23:10:24.813Z,5.03
2024-04-24T23:13:10.155Z,4.92
2024-04-24T23:15:55.536Z,5.14
2024-04-24T23:18:40.893Z,5.23
2024-04-24T23:21:26.280Z,5.25
2024-04-24T23:24:11.749Z,5.03
2024-04-24T23:26:57.088Z,5.03
2024-04-24T23:29:42.457Z,5.07
2024-04-24T23:32:27.951Z,5.05
2024-04-24T23:35:13.253Z,5.07
2024-04-24T23:37:58.820Z,5.12
2024-04-24T23:40:44.188Z,5.01
2024-04-24T23:43:29.780Z,5.08
2024-04-24T23:46:16.172Z,4.97
2024-04-24T23:49:01.419Z,4.85
2024-04-24T23:51:46.948Z,4.79
2024-04-24T23:54:32.353Z,4.62
2024-04-24T23:57:17.696Z,4.82
